createdAt,value
2023-08-31T00:00:56.801Z,2.70
2023-08-31T00:03:23.439Z,2.50
2023-08-31T00:05:52.521Z,2.60
2023-08-31T00:08:19.216Z,2.60
2023-08-31T00:10:46.306Z,3.20
2023-08-31T00:13:13.416Z,3.70
2023-08-31T00:15:42.153Z,3.90
2023-08-31T00:18:09.032Z,4.50
2023-08-31T00:20:36.073Z,4.70
2023-08-31T00:23:02.768Z,5.10
2023-08-31T00:25:29.819Z,5.90
2023-08-31T00:27:58.406Z,5.50
2023-08-31T00:30:30.964Z,6.30
2023-08-31T00:35:27.228Z,6.20
2023-08-31T00:37:59.343Z,6.20
2023-08-31T00:40:26.896Z,6.40
2023-08-31T00:42:53.474Z,6.20
2023-08-31T00:45:20.414Z,7.60
2023-08-31T00:47:48.744Z,6.60
2023-08-31T00:50:15.278Z,8.50
2023-08-31T00:52:45.272Z,7.00
2023-08-31T00:55:12.088Z,7.60
2023-08-31T00:57:38.503Z,9.00
2023-08-31T01:00:09.195Z,7.00
2023-08-31T01:02:56.223Z,6.90
2023-08-31T01:05:48.413Z,7.80
2023-08-31T01:08:40.465Z,6.80
2023-08-31T01:11:35.543Z,7.50
2023-08-31T01:14:20.693Z,6.30
2023-08-31T01:16:51.155Z,6.90
2023-08-31T01:19:49.693Z,5.90
2023-08-31T01:22:41.546Z,6.70
2023-08-31T01:25:10.336Z,6.80
2023-08-31T01:27:38.855Z,6.30
2023-08-31T01:30:06.924Z,6.20
2023-08-31T01:32:34.068Z,5.70
2023-08-31T01:35:02.469Z,5.90
2023-08-31T01:37:41.553Z,5.70
2023-08-31T01:40:15.868Z,5.90
2023-08-31T01:42:45.008Z,4.80
2023-08-31T01:45:22.013Z,5.50
2023-08-31T01:47:49.938Z,5.30
2023-08-31T01:50:16.410Z,5.60
2023-08-31T01:52:42.830Z,5.10
2023-08-31T01:55:10.027Z,5.10
2023-08-31T01:57:36.534Z,5.00
2023-08-31T02:00:05.319Z,5.30
2023-08-31T02:02:32.243Z,5.00
2023-08-31T02:05:01.738Z,4.80
2023-08-31T02:07:29.241Z,4.70
2023-08-31T02:09:55.753Z,4.80
2023-08-31T02:12:22.479Z,5.20
2023-08-31T02:14:49.203Z,6.20
2023-08-31T02:17:15.590Z,5.20
2023-08-31T02:19:42.076Z,5.80
2023-08-31T02:22:08.626Z,4.90
2023-08-31T02:24:35.070Z,5.30
2023-08-31T02:27:01.551Z,5.00
2023-08-31T02:29:28.044Z,5.40
2023-08-31T02:31:54.549Z,4.90
2023-08-31T02:34:21.226Z,5.80
2023-08-31T02:36:47.672Z,5.80
2023-08-31T02:39:14.408Z,5.30
2023-08-31T02:41:41.046Z,5.70
2023-08-31T02:44:07.571Z,5.40
2023-08-31T02:46:34.080Z,5.90
2023-08-31T02:51:26.693Z,6.50
2023-08-31T02:53:54.522Z,5.80
2023-08-31T02:56:20.982Z,6.30
2023-08-31T02:58:47.390Z,6.20
2023-08-31T03:01:15.615Z,5.00
2023-08-31T03:03:44.848Z,6.40
2023-08-31T03:06:11.264Z,6.00
2023-08-31T03:08:38.987Z,6.80
2023-08-31T03:11:06.913Z,6.80
2023-08-31T03:13:34.635Z,6.50
2023-08-31T03:16:02.006Z,6.10
2023-08-31T03:18:29.033Z,5.70
2023-08-31T03:20:56.428Z,6.30
2023-08-31T03:23:22.955Z,6.10
2023-08-31T03:25:49.505Z,5.70
2023-08-31T03:28:15.971Z,6.50
2023-08-31T03:30:42.527Z,6.40
2023-08-31T03:33:09.796Z,7.10
2023-08-31T03:35:36.451Z,6.60
2023-08-31T03:38:03.018Z,7.00
2023-08-31T03:40:29.521Z,6.90
2023-08-31T03:42:56.065Z,6.20
2023-08-31T03:45:24.887Z,6.50
2023-08-31T03:47:51.272Z,6.70
2023-08-31T03:50:17.762Z,7.00
2023-08-31T03:52:44.213Z,7.00
2023-08-31T03:55:11.208Z,7.20
2023-08-31T03:57:37.629Z,7.30
2023-08-31T04:00:09.766Z,6.80
2023-08-31T04:02:36.904Z,6.60
2023-08-31T04:05:06.331Z,7.10
2023-08-31T04:07:36.367Z,7.30
2023-08-31T04:10:04.947Z,7.80
2023-08-31T04:12:31.705Z,8.60
2023-08-31T04:14:58.134Z,7.80
2023-08-31T04:17:24.572Z,10.10
2023-08-31T04:19:51.671Z,8.10
2023-08-31T04:22:18.184Z,10.00
2023-08-31T04:24:44.700Z,8.40
2023-08-31T04:27:11.222Z,8.80
2023-08-31T04:29:38.397Z,9.30
2023-08-31T04:32:05.385Z,8.80
2023-08-31T04:34:31.900Z,7.70
2023-08-31T04:36:58.457Z,7.90
2023-08-31T04:39:24.875Z,7.70
2023-08-31T04:41:51.311Z,8.30
2023-08-31T04:44:18.256Z,7.80
2023-08-31T04:46:44.662Z,7.70
2023-08-31T04:49:11.176Z,7.90
2023-08-31T04:51:42.777Z,7.90
2023-08-31T04:54:09.262Z,7.90
2023-08-31T04:56:36.444Z,7.30
2023-08-31T04:59:04.085Z,7.20
2023-08-31T05:01:31.119Z,6.70
2023-08-31T05:03:57.678Z,6.70
2023-08-31T05:06:24.159Z,6.70
2023-08-31T05:08:50.973Z,6.80
2023-08-31T05:11:17.484Z,7.10
2023-08-31T05:13:44.019Z,7.00
2023-08-31T05:16:10.821Z,6.90
2023-08-31T05:18:39.178Z,7.20
2023-08-31T05:21:05.636Z,7.70
2023-08-31T05:23:32.194Z,7.40
2023-08-31T05:25:59.731Z,8.20
2023-08-31T05:28:26.156Z,8.10
2023-08-31T05:30:56.297Z,7.90
2023-08-31T05:33:28.473Z,8.20
2023-08-31T05:35:55.670Z,8.60
2023-08-31T05:38:22.603Z,8.70
2023-08-31T05:40:49.040Z,7.90
2023-08-31T05:43:16.737Z,9.50
2023-08-31T05:45:43.578Z,8.70
2023-08-31T05:48:10.172Z,8.70
2023-08-31T05:50:39.940Z,8.00
2023-08-31T05:53:06.673Z,10.00
2023-08-31T05:55:33.907Z,10.10
2023-08-31T06:00:26.743Z,7.70
2023-08-31T06:02:53.211Z,9.10
2023-08-31T06:05:20.344Z,8.50
2023-08-31T06:07:46.815Z,7.60
2023-08-31T06:10:14.726Z,9.40
2023-08-31T06:12:41.209Z,9.90
2023-08-31T06:15:08.209Z,8.00
2023-08-31T06:17:36.235Z,11.90
2023-08-31T06:20:03.174Z,8.10
2023-08-31T06:22:29.637Z,7.60
2023-08-31T06:24:56.239Z,6.60
2023-08-31T06:27:22.655Z,6.20
2023-08-31T06:29:49.168Z,6.50
2023-08-31T06:32:15.751Z,9.20
2023-08-31T06:34:42.312Z,7.70
2023-08-31T06:37:08.755Z,6.50
2023-08-31T06:39:35.424Z,7.50
2023-08-31T06:42:01.938Z,7.30
2023-08-31T06:44:30.463Z,6.70
2023-08-31T06:46:57.046Z,6.70
2023-08-31T06:49:24.660Z,6.30
2023-08-31T06:51:51.469Z,5.80
2023-08-31T06:54:17.885Z,6.20
2023-08-31T06:56:44.349Z,5.40
2023-08-31T06:59:10.856Z,6.70
2023-08-31T07:01:37.837Z,6.40
2023-08-31T07:04:05.597Z,6.50
2023-08-31T07:06:36.091Z,5.20
2023-08-31T07:09:02.657Z,6.30
2023-08-31T07:11:29.075Z,5.90
2023-08-31T07:13:56.010Z,7.10
2023-08-31T07:16:22.719Z,5.90
2023-08-31T07:18:49.178Z,5.10
2023-08-31T07:21:15.640Z,5.60
2023-08-31T07:23:42.266Z,8.70
2023-08-31T07:26:08.763Z,5.70
2023-08-31T07:28:36.030Z,6.40
2023-08-31T07:31:07.497Z,5.70
2023-08-31T07:33:38.611Z,5.00
2023-08-31T07:36:07.258Z,5.60
2023-08-31T07:38:34.608Z,5.60
2023-08-31T07:43:27.804Z,5.10
2023-08-31T07:45:54.886Z,4.60
2023-08-31T07:48:21.506Z,4.30
2023-08-31T07:50:47.929Z,4.10
2023-08-31T07:53:14.723Z,4.30
2023-08-31T07:55:41.948Z,4.90
2023-08-31T07:58:08.478Z,4.60
2023-08-31T08:00:35.040Z,4.40
2023-08-31T08:05:28.539Z,6.90
2023-08-31T08:07:54.992Z,6.50
2023-08-31T08:10:21.614Z,5.20
2023-08-31T08:12:48.075Z,3.60
2023-08-31T08:15:15.271Z,3.10
2023-08-31T08:17:41.733Z,4.20
2023-08-31T08:20:09.049Z,5.20
2023-08-31T08:22:37.117Z,3.30
2023-08-31T08:25:04.356Z,3.70
2023-08-31T08:27:31.178Z,3.90
2023-08-31T08:29:57.614Z,3.80
2023-08-31T08:32:24.163Z,3.80
2023-08-31T08:34:52.134Z,3.20
2023-08-31T08:37:18.891Z,2.80
2023-08-31T08:39:50.923Z,2.70
2023-08-31T08:42:20.142Z,3.00
2023-08-31T08:44:47.903Z,2.50
2023-08-31T08:47:15.037Z,2.50
2023-08-31T08:49:41.668Z,2.60
2023-08-31T08:52:08.721Z,2.80
2023-08-31T08:54:39.422Z,3.00
2023-08-31T08:57:06.842Z,3.20
2023-08-31T08:59:33.720Z,3.00
2023-08-31T09:02:00.311Z,2.70
2023-08-31T09:04:26.803Z,2.90
2023-08-31T09:06:53.402Z,3.60
2023-08-31T09:09:20.348Z,2.70
2023-08-31T09:11:47.041Z,3.10
2023-08-31T09:14:18.174Z,3.10
2023-08-31T09:16:50.817Z,2.80
2023-08-31T09:19:25.376Z,3.40
2023-08-31T09:21:53.508Z,3.00
2023-08-31T09:24:20.006Z,2.30
2023-08-31T09:26:49.730Z,2.90
2023-08-31T09:29:16.826Z,3.10
2023-08-31T09:31:45.584Z,3.30
2023-08-31T09:34:12.573Z,2.60
2023-08-31T09:36:39.957Z,2.60
2023-08-31T09:39:07.463Z,2.60
2023-08-31T09:41:36.825Z,2.50
2023-08-31T09:44:22.074Z,2.80
2023-08-31T09:46:48.728Z,2.90
2023-08-31T09:49:17.844Z,3.00
2023-08-31T09:51:50.494Z,4.20
2023-08-31T09:54:20.325Z,3.00
2023-08-31T09:56:48.910Z,2.90
2023-08-31T09:59:17.879Z,2.70
2023-08-31T10:01:47.773Z,3.40
2023-08-31T10:04:14.998Z,2.30
2023-08-31T10:06:43.143Z,2.50
2023-08-31T10:09:10.819Z,2.40
2023-08-31T10:11:39.282Z,2.70
2023-08-31T10:14:06.448Z,2.70
2023-08-31T10:16:33.301Z,2.50
2023-08-31T10:19:00.153Z,2.60
2023-08-31T10:21:27.083Z,2.70
2023-08-31T10:23:53.711Z,2.40
2023-08-31T10:26:31.979Z,3.00
2023-08-31T10:29:00.634Z,3.10
2023-08-31T10:31:32.533Z,2.70
2023-08-31T10:34:03.234Z,3.50
2023-08-31T10:36:49.634Z,2.80
2023-08-31T10:39:22.845Z,2.60
2023-08-31T10:41:57.936Z,2.60
2023-08-31T10:44:31.821Z,2.60
2023-08-31T10:47:04.038Z,3.70
2023-08-31T10:49:30.498Z,2.70
2023-08-31T10:52:03.384Z,2.90
2023-08-31T10:54:38.569Z,2.90
2023-08-31T10:57:10.296Z,2.70
2023-08-31T10:59:55.989Z,2.60
2023-08-31T11:02:43.826Z,2.70
2023-08-31T11:05:23.266Z,2.50
2023-08-31T11:07:54.220Z,2.90
2023-08-31T11:10:28.631Z,2.70
2023-08-31T11:12:58.386Z,3.50
2023-08-31T11:15:30.896Z,2.70
2023-08-31T11:17:57.563Z,2.70
2023-08-31T11:20:29.375Z,2.60
2023-08-31T11:22:56.727Z,2.60
2023-08-31T11:25:26.853Z,2.90
2023-08-31T11:30:32.548Z,2.70
2023-08-31T11:33:03.844Z,2.90
2023-08-31T11:35:38.522Z,2.50
2023-08-31T11:38:05.683Z,2.50
2023-08-31T11:40:32.635Z,2.60
2023-08-31T11:45:29.778Z,2.40
2023-08-31T11:47:57.719Z,3.40
2023-08-31T11:50:25.535Z,3.50
2023-08-31T11:52:54.359Z,3.40
2023-08-31T11:55:21.956Z,3.60
2023-08-31T11:57:51.912Z,3.90
2023-08-31T12:00:21.271Z,3.50
2023-08-31T12:03:00.692Z,3.90
2023-08-31T12:05:28.557Z,3.50
2023-08-31T12:07:56.866Z,3.70
2023-08-31T12:10:26.067Z,4.10
2023-08-31T12:12:54.237Z,4.30
2023-08-31T12:15:22.546Z,4.50
2023-08-31T12:17:55.088Z,4.10
2023-08-31T12:20:29.911Z,5.10
2023-08-31T12:22:56.352Z,4.50
2023-08-31T12:25:23.969Z,4.60
2023-08-31T12:27:51.163Z,4.30
2023-08-31T12:30:17.882Z,4.00
2023-08-31T12:32:44.504Z,4.40
2023-08-31T12:35:12.650Z,4.60
2023-08-31T12:37:39.653Z,5.10
2023-08-31T12:40:08.266Z,5.90
2023-08-31T12:42:34.926Z,3.90
2023-08-31T12:45:01.422Z,3.90
2023-08-31T12:47:28.044Z,4.10
2023-08-31T12:49:54.638Z,5.10
2023-08-31T12:52:21.394Z,8.60
2023-08-31T12:54:48.366Z,5.60
2023-08-31T12:57:15.486Z,5.90
2023-08-31T12:59:43.187Z,7.20
2023-08-31T13:02:11.908Z,7.00
2023-08-31T13:04:40.708Z,7.50
2023-08-31T13:07:07.623Z,8.10
2023-08-31T13:09:34.057Z,6.90
2023-08-31T13:12:00.460Z,7.40
2023-08-31T13:14:26.992Z,7.50
2023-08-31T13:16:53.475Z,5.90
2023-08-31T13:19:20.542Z,4.70
2023-08-31T13:21:46.986Z,5.60
2023-08-31T13:24:13.422Z,6.30
2023-08-31T13:26:39.820Z,5.60
2023-08-31T13:29:06.212Z,6.10
2023-08-31T13:31:32.952Z,4.60
2023-08-31T13:33:59.329Z,5.20
2023-08-31T13:36:25.860Z,4.30
2023-08-31T13:38:52.419Z,4.90
2023-08-31T13:41:18.831Z,5.00
2023-08-31T13:43:45.342Z,4.20
2023-08-31T13:46:13.245Z,4.60
2023-08-31T13:48:39.687Z,4.50
2023-08-31T13:51:06.114Z,4.60
2023-08-31T13:53:32.727Z,4.60
2023-08-31T13:55:59.138Z,4.70
2023-08-31T13:58:25.603Z,3.70
2023-08-31T14:00:52.030Z,2.90
2023-08-31T14:03:18.631Z,2.80
2023-08-31T14:05:49.994Z,3.50
2023-08-31T14:08:17.159Z,2.50
2023-08-31T14:10:43.665Z,2.70
2023-08-31T14:13:10.207Z,2.50
2023-08-31T14:15:37.609Z,3.30
2023-08-31T14:18:05.055Z,3.20
2023-08-31T14:20:31.561Z,2.60
2023-08-31T14:22:58.817Z,3.50
2023-08-31T14:25:26.700Z,3.10
2023-08-31T14:27:53.208Z,2.70
2023-08-31T14:30:19.880Z,3.10
2023-08-31T14:32:46.331Z,2.10
2023-08-31T14:35:12.807Z,3.90
2023-08-31T14:37:39.301Z,3.10
2023-08-31T14:40:08.365Z,2.40
2023-08-31T14:42:35.178Z,2.10
2023-08-31T14:47:28.644Z,2.60
2023-08-31T14:49:56.627Z,2.60
2023-08-31T14:52:23.512Z,4.10
2023-08-31T14:54:50.253Z,2.10
2023-08-31T14:57:16.817Z,1.70
2023-08-31T14:59:43.325Z,1.50
2023-08-31T15:02:09.793Z,1.60
2023-08-31T15:04:36.310Z,1.80
2023-08-31T15:09:28.370Z,1.60
2023-08-31T15:11:54.894Z,2.50
2023-08-31T15:14:21.384Z,2.00
2023-08-31T15:16:47.818Z,2.20
2023-08-31T15:19:14.317Z,1.90
2023-08-31T15:21:40.872Z,2.50
2023-08-31T15:24:07.768Z,2.00
2023-08-31T15:26:34.520Z,1.90
2023-08-31T15:29:00.964Z,2.20
2023-08-31T15:31:27.844Z,2.50
2023-08-31T15:33:54.473Z,2.00
2023-08-31T15:36:20.935Z,1.70
2023-08-31T15:38:47.355Z,1.80
2023-08-31T15:41:16.080Z,2.00
2023-08-31T15:43:43.633Z,5.30
2023-08-31T15:46:10.818Z,2.30
2023-08-31T15:48:38.121Z,2.10
2023-08-31T15:51:05.082Z,2.00
2023-08-31T15:53:32.413Z,2.30
2023-08-31T15:55:59.031Z,2.10
2023-08-31T15:58:27.773Z,2.20
2023-08-31T16:01:02.042Z,2.30
2023-08-31T16:03:31.352Z,2.50
2023-08-31T16:06:01.403Z,2.50
2023-08-31T16:08:29.145Z,2.60
2023-08-31T16:10:56.145Z,2.60
2023-08-31T16:13:22.987Z,2.70
2023-08-31T16:15:51.068Z,2.40
2023-08-31T16:18:18.175Z,2.50
2023-08-31T16:20:45.202Z,3.00
2023-08-31T16:23:12.250Z,2.60
2023-08-31T16:25:38.774Z,2.30
2023-08-31T16:28:05.633Z,2.00
2023-08-31T16:30:32.522Z,1.80
2023-08-31T16:32:59.227Z,2.00
2023-08-31T16:35:25.708Z,2.20
2023-08-31T16:37:52.128Z,2.00
2023-08-31T16:40:18.705Z,1.80
2023-08-31T16:42:45.157Z,1.70
2023-08-31T16:45:12.054Z,1.90
2023-08-31T16:47:38.923Z,2.20
2023-08-31T16:50:06.117Z,2.10
2023-08-31T16:52:33.521Z,2.30
2023-08-31T16:55:00.674Z,2.20
2023-08-31T16:57:27.343Z,3.00
2023-08-31T16:59:54.184Z,2.90
2023-08-31T17:02:20.722Z,2.70
2023-08-31T17:04:47.916Z,2.50
2023-08-31T17:07:14.439Z,2.40
2023-08-31T17:09:40.958Z,2.20
2023-08-31T17:12:08.087Z,2.30
2023-08-31T17:14:34.470Z,2.40
2023-08-31T17:19:29.246Z,3.00
2023-08-31T17:21:55.780Z,2.30
2023-08-31T17:24:22.266Z,2.90
2023-08-31T17:26:48.868Z,7.50
2023-08-31T17:29:15.380Z,8.70
2023-08-31T17:31:43.282Z,7.00
2023-08-31T17:34:13.133Z,5.60
2023-08-31T17:36:39.811Z,5.20
2023-08-31T17:39:06.309Z,5.60
2023-08-31T17:41:32.803Z,5.80
2023-08-31T17:43:59.204Z,5.40
2023-08-31T17:46:25.864Z,4.30
2023-08-31T17:48:52.549Z,3.20
2023-08-31T17:51:19.115Z,3.00
2023-08-31T17:53:46.170Z,3.20
2023-08-31T17:56:12.616Z,2.60
2023-08-31T17:58:39.134Z,2.70
2023-08-31T18:01:06.135Z,3.00
2023-08-31T18:03:33.116Z,2.90
2023-08-31T18:05:59.838Z,2.90
2023-08-31T18:08:28.088Z,2.90
2023-08-31T18:10:55.616Z,3.20
2023-08-31T18:13:22.256Z,3.10
2023-08-31T18:15:52.886Z,2.90
2023-08-31T18:18:20.561Z,2.60
2023-08-31T18:20:47.455Z,3.00
2023-08-31T18:23:15.720Z,3.10
2023-08-31T18:25:48.343Z,3.20
2023-08-31T18:28:15.050Z,2.80
2023-08-31T18:30:42.173Z,3.10
2023-08-31T18:33:08.753Z,3.30
2023-08-31T18:35:35.235Z,3.30
2023-08-31T18:38:01.698Z,3.50
2023-08-31T18:40:28.064Z,3.40
2023-08-31T18:42:54.549Z,3.20
2023-08-31T18:45:21.019Z,3.90
2023-08-31T18:47:47.569Z,3.90
2023-08-31T18:50:21.283Z,3.60
2023-08-31T18:52:49.788Z,3.30
2023-08-31T18:55:16.953Z,3.40
2023-08-31T18:57:47.002Z,3.30
2023-08-31T19:00:15.276Z,4.10
2023-08-31T19:02:44.059Z,3.60
2023-08-31T19:05:12.101Z,3.90
2023-08-31T19:07:39.149Z,3.80
2023-08-31T19:10:09.026Z,4.00
2023-08-31T19:12:36.813Z,4.70
2023-08-31T19:15:04.785Z,5.50
2023-08-31T19:17:31.323Z,5.50
2023-08-31T19:19:57.818Z,5.60
2023-08-31T19:22:24.602Z,5.20
2023-08-31T19:24:52.558Z,4.80
2023-08-31T19:27:19.943Z,4.60
2023-08-31T19:29:46.568Z,4.80
2023-08-31T19:32:13.808Z,4.00
2023-08-31T19:34:40.453Z,4.20
2023-08-31T19:37:06.871Z,3.90
2023-08-31T19:39:33.338Z,4.30
2023-08-31T19:42:00.316Z,4.10
2023-08-31T19:44:26.938Z,4.70
2023-08-31T19:46:56.124Z,5.60
2023-08-31T19:49:25.613Z,4.80
2023-08-31T19:51:52.276Z,6.00
2023-08-31T19:54:18.805Z,4.30
2023-08-31T19:56:45.322Z,4.30
2023-08-31T19:59:11.982Z,4.60
2023-08-31T20:01:40.493Z,4.20
2023-08-31T20:04:07.133Z,4.10
2023-08-31T20:06:33.778Z,3.90
2023-08-31T20:09:00.559Z,3.50
2023-08-31T20:11:27.032Z,3.00
2023-08-31T20:13:57.036Z,2.70
2023-08-31T20:16:23.863Z,2.60
2023-08-31T20:18:50.585Z,2.70
2023-08-31T20:21:17.370Z,2.50
2023-08-31T20:23:44.115Z,2.30
2023-08-31T20:26:10.958Z,2.40
2023-08-31T20:28:37.468Z,3.70
2023-08-31T20:31:04.930Z,4.00
2023-08-31T20:33:31.533Z,4.20
2023-08-31T20:36:05.880Z,4.40
2023-08-31T20:38:32.428Z,2.80
2023-08-31T20:40:58.880Z,2.10
2023-08-31T20:43:25.280Z,3.60
2023-08-31T20:45:52.652Z,3.30
2023-08-31T20:48:19.374Z,4.30
2023-08-31T20:50:46.055Z,3.90
2023-08-31T20:53:12.408Z,3.00
2023-08-31T20:55:38.978Z,3.30
2023-08-31T20:58:05.534Z,3.50
2023-08-31T21:00:31.958Z,3.20
2023-08-31T21:02:58.468Z,4.20
2023-08-31T21:05:24.907Z,3.10
2023-08-31T21:07:51.418Z,2.40
2023-08-31T21:10:17.903Z,2.50
2023-08-31T21:12:44.323Z,2.40
2023-08-31T21:15:11.031Z,2.20
2023-08-31T21:17:38.765Z,2.30
2023-08-31T21:20:07.398Z,2.50
2023-08-31T21:22:33.912Z,2.20
2023-08-31T21:25:00.428Z,2.10
2023-08-31T21:27:26.958Z,2.10
2023-08-31T21:29:53.417Z,2.10
2023-08-31T21:32:19.847Z,2.20
2023-08-31T21:34:46.263Z,2.10
2023-08-31T21:37:12.719Z,2.90
2023-08-31T21:39:39.254Z,3.80
2023-08-31T21:42:05.762Z,3.10
2023-08-31T21:44:32.220Z,3.90
2023-08-31T21:46:58.651Z,4.40
2023-08-31T21:49:25.102Z,4.10
2023-08-31T21:51:51.516Z,3.40
2023-08-31T21:54:17.953Z,2.60
2023-08-31T21:56:44.376Z,2.20
2023-08-31T21:59:12.124Z,2.20
2023-08-31T22:01:39.556Z,2.20
2023-08-31T22:04:06.574Z,2.30
2023-08-31T22:06:33.061Z,4.30
2023-08-31T22:08:59.592Z,3.60
2023-08-31T22:11:26.046Z,8.30
2023-08-31T22:13:52.556Z,5.60
2023-08-31T22:16:29.308Z,5.10
2023-08-31T22:18:56.870Z,5.00
2023-08-31T22:21:23.338Z,4.80
2023-08-31T22:23:49.755Z,3.70
2023-08-31T22:26:16.245Z,3.50
2023-08-31T22:28:42.680Z,3.40
2023-08-31T22:31:09.122Z,2.70
2023-08-31T22:33:35.649Z,2.60
2023-08-31T22:36:05.415Z,3.20
2023-08-31T22:38:32.010Z,4.00
2023-08-31T22:40:58.464Z,7.50
2023-08-31T22:43:24.907Z,5.40
2023-08-31T22:45:58.816Z,4.10
2023-08-31T22:48:25.440Z,5.60
2023-08-31T22:53:29.718Z,9.10
2023-08-31T22:55:56.527Z,6.70
2023-08-31T22:58:22.938Z,3.90
2023-08-31T23:00:52.322Z,2.90
2023-08-31T23:03:20.901Z,5.20
2023-08-31T23:05:47.721Z,7.80
2023-08-31T23:08:15.037Z,5.10
2023-08-31T23:10:41.836Z,4.20
2023-08-31T23:13:08.251Z,3.20
2023-08-31T23:15:38.235Z,2.90
2023-08-31T23:18:05.439Z,3.30
2023-08-31T23:20:31.921Z,2.80
2023-08-31T23:22:58.396Z,2.70
2023-08-31T23:25:25.030Z,2.50
2023-08-31T23:27:51.543Z,2.70
2023-08-31T23:30:18.260Z,2.80
2023-08-31T23:32:44.842Z,2.70
2023-08-31T23:35:11.630Z,2.80
2023-08-31T23:37:38.118Z,2.50
2023-08-31T23:40:10.856Z,3.20
2023-08-31T23:42:37.479Z,3.40
2023-08-31T23:45:05.571Z,3.60
2023-08-31T23:47:32.032Z,3.30
2023-08-31T23:49:58.508Z,5.30
2023-08-31T23:52:25.544Z,3.60
2023-08-31T23:54:52.025Z,2.60
2023-08-31T23:57:18.421Z,3.50
2023-08-31T23:59:44.974Z,3.20
